sensor_id;sensor_type;location;lat;lon;timestamp;P1;durP1;ratioP1;P2;durP2;ratioP2
22417;SDS011;11376;50.932;4.442;2024-02-15T00:00:39;10.88;;;3.75;;
22417;SDS011;11376;50.932;4.442;2024-02-15T00:03:05;12.02;;;3.63;;
22417;SDS011;11376;50.932;4.442;2024-02-15T00:05:33;11.32;;;4.07;;
22417;SDS011;11376;50.932;4.442;2024-02-15T00:08:02;11.98;;;3.40;;
22417;SDS011;11376;50.932;4.442;2024-02-15T00:10:28;11.55;;;3.83;;
22417;SDS011;11376;50.932;4.442;2024-02-15T00:12:53;14.18;;;3.28;;
22417;SDS011;11376;50.932;4.442;2024-02-15T00:15:19;14.20;;;3.80;;
22417;SDS011;11376;50.932;4.442;2024-02-15T00:17:45;13.32;;;3.47;;
22417;SDS011;11376;50.932;4.442;2024-02-15T00:20:11;12.95;;;3.67;;
22417;SDS011;11376;50.932;4.442;2024-02-15T00:22:38;13.82;;;3.50;;
22417;SDS011;11376;50.932;4.442;2024-02-15T00:25:06;12.48;;;3.67;;
22417;SDS011;11376;50.932;4.442;2024-02-15T00:27:34;15.15;;;3.45;;
22417;SDS011;11376;50.932;4.442;2024-02-15T00:30:04;12.82;;;3.05;;
22417;SDS011;11376;50.932;4.442;2024-02-15T00:32:32;11.52;;;3.47;;
22417;SDS011;11376;50.932;4.442;2024-02-15T00:35:01;11.63;;;3.20;;
22417;SDS011;11376;50.932;4.442;2024-02-15T00:37:32;13.18;;;2.90;;
22417;SDS011;11376;50.932;4.442;2024-02-15T00:39:58;10.05;;;3.08;;
22417;SDS011;11376;50.932;4.442;2024-02-15T00:42:24;9.18;;;2.80;;
22417;SDS011;11376;50.932;4.442;2024-02-15T00:44:50;12.85;;;3.03;;
22417;SDS011;11376;50.932;4.442;2024-02-15T00:47:16;15.55;;;3.60;;
22417;SDS011;11376;50.932;4.442;2024-02-15T00:49:44;9.40;;;2.38;;
22417;SDS011;11376;50.932;4.442;2024-02-15T00:52:10;8.88;;;2.53;;
22417;SDS011;11376;50.932;4.442;2024-02-15T00:54:36;9.10;;;1.92;;
22417;SDS011;11376;50.932;4.442;2024-02-15T00:57:01;12.20;;;3.20;;
22417;SDS011;11376;50.932;4.442;2024-02-15T00:59:27;11.40;;;2.47;;
22417;SDS011;11376;50.932;4.442;2024-02-15T01:01:52;9.02;;;2.13;;
22417;SDS011;11376;50.932;4.442;2024-02-15T01:04:19;13.88;;;2.58;;
22417;SDS011;11376;50.932;4.442;2024-02-15T01:06:45;10.57;;;2.13;;
22417;SDS011;11376;50.932;4.442;2024-02-15T01:09:10;8.20;;;2.00;;
22417;SDS011;11376;50.932;4.442;2024-02-15T01:11:38;12.57;;;2.50;;
22417;SDS011;11376;50.932;4.442;2024-02-15T01:14:03;12.77;;;2.35;;
22417;SDS011;11376;50.932;4.442;2024-02-15T01:16:29;9.45;;;1.95;;
22417;SDS011;11376;50.932;4.442;2024-02-15T01:18:54;9.13;;;2.53;;
22417;SDS011;11376;50.932;4.442;2024-02-15T01:21:20;11.15;;;2.30;;
22417;SDS011;11376;50.932;4.442;2024-02-15T01:23:47;11.82;;;2.58;;
22417;SDS011;11376;50.932;4.442;2024-02-15T01:26:12;12.15;;;1.92;;
22417;SDS011;11376;50.932;4.442;2024-02-15T01:28:39;11.68;;;2.08;;
22417;SDS011;11376;50.932;4.442;2024-02-15T01:31:08;7.03;;;1.40;;
22417;SDS011;11376;50.932;4.442;2024-02-15T01:33:35;9.10;;;1.90;;
22417;SDS011;11376;50.932;4.442;2024-02-15T01:36:02;6.30;;;1.70;;
22417;SDS011;11376;50.932;4.442;2024-02-15T01:38:28;8.70;;;1.97;;
22417;SDS011;11376;50.932;4.442;2024-02-15T01:40:54;8.73;;;1.75;;
22417;SDS011;11376;50.932;4.442;2024-02-15T01:43:19;10.10;;;1.90;;
22417;SDS011;11376;50.932;4.442;2024-02-15T01:45:45;10.55;;;1.80;;
22417;SDS011;11376;50.932;4.442;2024-02-15T01:48:12;6.03;;;2.00;;
22417;SDS011;11376;50.932;4.442;2024-02-15T01:50:39;7.47;;;1.35;;
22417;SDS011;11376;50.932;4.442;2024-02-15T01:53:06;7.38;;;1.35;;
22417;SDS011;11376;50.932;4.442;2024-02-15T01:55:35;6.50;;;1.33;;
22417;SDS011;11376;50.932;4.442;2024-02-15T01:58:02;8.50;;;1.58;;
22417;SDS011;11376;50.932;4.442;2024-02-15T02:00:28;7.40;;;1.90;;
22417;SDS011;11376;50.932;4.442;2024-02-15T02:02:56;7.20;;;1.35;;
22417;SDS011;11376;50.932;4.442;2024-02-15T02:05:27;7.65;;;1.40;;
22417;SDS011;11376;50.932;4.442;2024-02-15T02:07:54;9.90;;;1.75;;
22417;SDS011;11376;50.932;4.442;2024-02-15T02:10:24;7.00;;;1.25;;
22417;SDS011;11376;50.932;4.442;2024-02-15T02:12:52;8.45;;;1.42;;
22417;SDS011;11376;50.932;4.442;2024-02-15T02:15:18;7.30;;;1.60;;
22417;SDS011;11376;50.932;4.442;2024-02-15T02:17:48;9.20;;;1.63;;
22417;SDS011;11376;50.932;4.442;2024-02-15T02:20:14;8.57;;;1.73;;
22417;SDS011;11376;50.932;4.442;2024-02-15T02:22:40;7.32;;;1.60;;
22417;SDS011;11376;50.932;4.442;2024-02-15T02:25:06;9.32;;;1.20;;
22417;SDS011;11376;50.932;4.442;2024-02-15T02:27:36;9.52;;;1.55;;
22417;SDS011;11376;50.932;4.442;2024-02-15T02:30:05;6.75;;;1.38;;
22417;SDS011;11376;50.932;4.442;2024-02-15T02:32:40;11.38;;;1.65;;
22417;SDS011;11376;50.932;4.442;2024-02-15T02:35:06;6.45;;;1.67;;
22417;SDS011;11376;50.932;4.442;2024-02-15T02:37:32;9.65;;;1.50;;
22417;SDS011;11376;50.932;4.442;2024-02-15T02:40:02;9.05;;;1.60;;
22417;SDS011;11376;50.932;4.442;2024-02-15T02:42:29;10.32;;;2.00;;
22417;SDS011;11376;50.932;4.442;2024-02-15T02:44:54;9.02;;;1.58;;
22417;SDS011;11376;50.932;4.442;2024-02-15T02:47:20;9.85;;;1.55;;
22417;SDS011;11376;50.932;4.442;2024-02-15T02:49:46;4.82;;;1.33;;
22417;SDS011;11376;50.932;4.442;2024-02-15T02:52:12;10.35;;;1.60;;
22417;SDS011;11376;50.932;4.442;2024-02-15T02:54:37;7.22;;;1.67;;
22417;SDS011;11376;50.932;4.442;2024-02-15T02:57:04;4.43;;;1.00;;
22417;SDS011;11376;50.932;4.442;2024-02-15T02:59:31;7.85;;;1.30;;
22417;SDS011;11376;50.932;4.442;2024-02-15T03:01:58;9.23;;;1.55;;
22417;SDS011;11376;50.932;4.442;2024-02-15T03:04:23;8.18;;;1.02;;
22417;SDS011;11376;50.932;4.442;2024-02-15T03:06:49;5.45;;;1.38;;
22417;SDS011;11376;50.932;4.442;2024-02-15T03:09:15;5.23;;;1.43;;
22417;SDS011;11376;50.932;4.442;2024-02-15T03:11:40;8.98;;;1.52;;
22417;SDS011;11376;50.932;4.442;2024-02-15T03:14:06;6.63;;;1.80;;
22417;SDS011;11376;50.932;4.442;2024-02-15T03:16:34;5.38;;;1.67;;
22417;SDS011;11376;50.932;4.442;2024-02-15T03:19:00;8.57;;;1.77;;
22417;SDS011;11376;50.932;4.442;2024-02-15T03:21:27;6.07;;;1.27;;
22417;SDS011;11376;50.932;4.442;2024-02-15T03:23:53;6.78;;;1.40;;
22417;SDS011;11376;50.932;4.442;2024-02-15T03:26:23;5.70;;;1.60;;
22417;SDS011;11376;50.932;4.442;2024-02-15T03:28:55;8.30;;;1.63;;
22417;SDS011;11376;50.932;4.442;2024-02-15T03:31:21;7.13;;;1.43;;
22417;SDS011;11376;50.932;4.442;2024-02-15T03:33:46;6.82;;;1.77;;
22417;SDS011;11376;50.932;4.442;2024-02-15T03:36:15;10.57;;;1.70;;
22417;SDS011;11376;50.932;4.442;2024-02-15T03:38:43;6.53;;;1.27;;
22417;SDS011;11376;50.932;4.442;2024-02-15T03:41:09;5.80;;;1.80;;
22417;SDS011;11376;50.932;4.442;2024-02-15T03:43:35;8.50;;;2.07;;
22417;SDS011;11376;50.932;4.442;2024-02-15T03:46:01;5.17;;;1.23;;
22417;SDS011;11376;50.932;4.442;2024-02-15T03:48:26;9.67;;;1.90;;
22417;SDS011;11376;50.932;4.442;2024-02-15T03:50:52;7.43;;;1.60;;
22417;SDS011;11376;50.932;4.442;2024-02-15T03:53:18;8.60;;;1.70;;
22417;SDS011;11376;50.932;4.442;2024-02-15T03:55:43;9.07;;;1.70;;
22417;SDS011;11376;50.932;4.442;2024-02-15T03:58:09;7.50;;;2.17;;
22417;SDS011;11376;50.932;4.442;2024-02-15T04:00:35;8.83;;;1.30;;
22417;SDS011;11376;50.932;4.442;2024-02-15T04:03:00;7.97;;;1.40;;
22417;SDS011;11376;50.932;4.442;2024-02-15T04:05:26;5.97;;;1.00;;
22417;SDS011;11376;50.932;4.442;2024-02-15T04:07:52;9.40;;;1.87;;
22417;SDS011;11376;50.932;4.442;2024-02-15T04:10:18;5.50;;;1.47;;
22417;SDS011;11376;50.932;4.442;2024-02-15T04:12:44;7.33;;;1.60;;
22417;SDS011;11376;50.932;4.442;2024-02-15T04:15:09;7.53;;;1.60;;
22417;SDS011;11376;50.932;4.442;2024-02-15T04:17:40;4.80;;;1.60;;
22417;SDS011;11376;50.932;4.442;2024-02-15T04:20:07;5.53;;;2.03;;
22417;SDS011;11376;50.932;4.442;2024-02-15T04:22:34;8.00;;;1.83;;
22417;SDS011;11376;50.932;4.442;2024-02-15T04:25:05;11.87;;;2.20;;
22417;SDS011;11376;50.932;4.442;2024-02-15T04:27:32;8.73;;;2.37;;
22417;SDS011;11376;50.932;4.442;2024-02-15T04:29:58;5.87;;;1.80;;
22417;SDS011;11376;50.932;4.442;2024-02-15T04:32:24;6.20;;;1.60;;
22417;SDS011;11376;50.932;4.442;2024-02-15T04:34:49;7.67;;;2.17;;
22417;SDS011;11376;50.932;4.442;2024-02-15T04:37:16;6.57;;;1.87;;
22417;SDS011;11376;50.932;4.442;2024-02-15T04:39:43;10.17;;;2.20;;
22417;SDS011;11376;50.932;4.442;2024-02-15T04:42:08;8.80;;;2.10;;
22417;SDS011;11376;50.932;4.442;2024-02-15T04:44:39;9.30;;;2.10;;
22417;SDS011;11376;50.932;4.442;2024-02-15T04:47:05;5.90;;;2.00;;
22417;SDS011;11376;50.932;4.442;2024-02-15T04:49:34;7.50;;;1.83;;
22417;SDS011;11376;50.932;4.442;2024-02-15T04:52:03;8.63;;;2.00;;
22417;SDS011;11376;50.932;4.442;2024-02-15T04:54:29;9.27;;;2.00;;
22417;SDS011;11376;50.932;4.442;2024-02-15T04:56:56;10.73;;;2.13;;
22417;SDS011;11376;50.932;4.442;2024-02-15T04:59:22;7.33;;;2.03;;
22417;SDS011;11376;50.932;4.442;2024-02-15T05:01:50;6.53;;;2.07;;
22417;SDS011;11376;50.932;4.442;2024-02-15T05:04:21;7.17;;;1.80;;
22417;SDS011;11376;50.932;4.442;2024-02-15T05:06:47;10.87;;;2.10;;
22417;SDS011;11376;50.932;4.442;2024-02-15T05:09:13;7.30;;;2.03;;
22417;SDS011;11376;50.932;4.442;2024-02-15T05:11:41;5.60;;;1.80;;
22417;SDS011;11376;50.932;4.442;2024-02-15T05:14:11;7.33;;;1.77;;
22417;SDS011;11376;50.932;4.442;2024-02-15T05:16:37;10.97;;;1.90;;
22417;SDS011;11376;50.932;4.442;2024-02-15T05:19:10;7.73;;;1.70;;
22417;SDS011;11376;50.932;4.442;2024-02-15T05:21:38;11.63;;;1.87;;
22417;SDS011;11376;50.932;4.442;2024-02-15T05:24:05;10.70;;;2.00;;
22417;SDS011;11376;50.932;4.442;2024-02-15T05:26:31;8.70;;;1.90;;
22417;SDS011;11376;50.932;4.442;2024-02-15T05:28:57;9.00;;;1.80;;
22417;SDS011;11376;50.932;4.442;2024-02-15T05:31:23;11.00;;;2.00;;
22417;SDS011;11376;50.932;4.442;2024-02-15T05:33:51;8.03;;;1.70;;
22417;SDS011;11376;50.932;4.442;2024-02-15T05:36:18;9.73;;;1.80;;
22417;SDS011;11376;50.932;4.442;2024-02-15T05:38:46;7.10;;;1.60;;
22417;SDS011;11376;50.932;4.442;2024-02-15T05:41:16;8.77;;;1.30;;
22417;SDS011;11376;50.932;4.442;2024-02-15T05:43:42;9.23;;;1.60;;
22417;SDS011;11376;50.932;4.442;2024-02-15T05:46:08;6.85;;;1.42;;
22417;SDS011;11376;50.932;4.442;2024-02-15T05:48:35;7.00;;;1.40;;
22417;SDS011;11376;50.932;4.442;2024-02-15T05:51:02;6.63;;;1.23;;
22417;SDS011;11376;50.932;4.442;2024-02-15T05:53:29;6.38;;;1.33;;
22417;SDS011;11376;50.932;4.442;2024-02-15T05:55:55;8.30;;;1.60;;
22417;SDS011;11376;50.932;4.442;2024-02-15T05:58:22;6.10;;;1.23;;
22417;SDS011;11376;50.932;4.442;2024-02-15T06:00:48;6.60;;;1.33;;
22417;SDS011;11376;50.932;4.442;2024-02-15T06:03:15;7.95;;;1.48;;
22417;SDS011;11376;50.932;4.442;2024-02-15T06:05:41;7.13;;;1.40;;
22417;SDS011;11376;50.932;4.442;2024-02-15T06:08:07;9.40;;;1.52;;
22417;SDS011;11376;50.932;4.442;2024-02-15T06:10:33;6.85;;;1.30;;
22417;SDS011;11376;50.932;4.442;2024-02-15T06:12:59;6.32;;;1.45;;
22417;SDS011;11376;50.932;4.442;2024-02-15T06:15:25;4.82;;;1.20;;
22417;SDS011;11376;50.932;4.442;2024-02-15T06:17:51;5.10;;;1.25;;
22417;SDS011;11376;50.932;4.442;2024-02-15T06:20:17;6.07;;;1.20;;
22417;SDS011;11376;50.932;4.442;2024-02-15T06:22:44;5.67;;;1.10;;
22417;SDS011;11376;50.932;4.442;2024-02-15T06:25:11;6.22;;;1.50;;
22417;SDS011;11376;50.932;4.442;2024-02-15T06:27:38;5.30;;;1.27;;
22417;SDS011;11376;50.932;4.442;2024-02-15T06:30:10;3.78;;;1.10;;
22417;SDS011;11376;50.932;4.442;2024-02-15T06:32:55;6.55;;;1.30;;
22417;SDS011;11376;50.932;4.442;2024-02-15T06:35:40;7.03;;;1.52;;
22417;SDS011;11376;50.932;4.442;2024-02-15T06:38:24;6.90;;;1.30;;
22417;SDS011;11376;50.932;4.442;2024-02-15T06:41:08;9.13;;;1.20;;
22417;SDS011;11376;50.932;4.442;2024-02-15T06:43:34;10.93;;;1.40;;
22417;SDS011;11376;50.932;4.442;2024-02-15T06:46:00;3.90;;;1.20;;
22417;SDS011;11376;50.932;4.442;2024-02-15T06:48:28;5.13;;;0.98;;
22417;SDS011;11376;50.932;4.442;2024-02-15T06:50:53;4.93;;;1.02;;
22417;SDS011;11376;50.932;4.442;2024-02-15T06:53:19;8.23;;;1.30;;
22417;SDS011;11376;50.932;4.442;2024-02-15T06:55:46;5.85;;;1.23;;
22417;SDS011;11376;50.932;4.442;2024-02-15T06:58:14;4.28;;;1.20;;
22417;SDS011;11376;50.932;4.442;2024-02-15T07:00:43;5.18;;;1.25;;
22417;SDS011;11376;50.932;4.442;2024-02-15T07:03:09;4.82;;;0.98;;
22417;SDS011;11376;50.932;4.442;2024-02-15T07:05:36;6.68;;;1.20;;
22417;SDS011;11376;50.932;4.442;2024-02-15T07:08:03;7.15;;;1.40;;
22417;SDS011;11376;50.932;4.442;2024-02-15T07:10:32;9.60;;;2.10;;
22417;SDS011;11376;50.932;4.442;2024-02-15T07:12:58;14.93;;;2.20;;
22417;SDS011;11376;50.932;4.442;2024-02-15T07:15:25;8.55;;;1.83;;
22417;SDS011;11376;50.932;4.442;2024-02-15T07:17:50;4.22;;;1.35;;
22417;SDS011;11376;50.932;4.442;2024-02-15T07:20:19;7.05;;;1.35;;
22417;SDS011;11376;50.932;4.442;2024-02-15T07:22:47;5.50;;;1.65;;
22417;SDS011;11376;50.932;4.442;2024-02-15T07:25:15;7.75;;;2.08;;
22417;SDS011;11376;50.932;4.442;2024-02-15T07:27:41;6.32;;;1.30;;
22417;SDS011;11376;50.932;4.442;2024-02-15T07:30:06;6.23;;;1.77;;
22417;SDS011;11376;50.932;4.442;2024-02-15T07:32:33;10.45;;;2.50;;
22417;SDS011;11376;50.932;4.442;2024-02-15T07:35:00;7.97;;;1.55;;
22417;SDS011;11376;50.932;4.442;2024-02-15T07:37:26;9.68;;;1.90;;
22417;SDS011;11376;50.932;4.442;2024-02-15T07:39:52;7.30;;;1.42;;
22417;SDS011;11376;50.932;4.442;2024-02-15T07:42:18;4.57;;;1.20;;
22417;SDS011;11376;50.932;4.442;2024-02-15T07:44:43;4.80;;;1.10;;
22417;SDS011;11376;50.932;4.442;2024-02-15T07:47:09;7.03;;;1.17;;
22417;SDS011;11376;50.932;4.442;2024-02-15T07:49:35;5.13;;;1.10;;
22417;SDS011;11376;50.932;4.442;2024-02-15T07:52:01;4.78;;;1.30;;
22417;SDS011;11376;50.932;4.442;2024-02-15T07:54:29;5.40;;;1.17;;
22417;SDS011;11376;50.932;4.442;2024-02-15T07:56:56;3.20;;;0.98;;
22417;SDS011;11376;50.932;4.442;2024-02-15T07:59:23;3.72;;;1.13;;
22417;SDS011;11376;50.932;4.442;2024-02-15T08:01:48;6.10;;;1.20;;
22417;SDS011;11376;50.932;4.442;2024-02-15T08:04:18;6.78;;;1.20;;
22417;SDS011;11376;50.932;4.442;2024-02-15T08:06:44;4.05;;;1.17;;
22417;SDS011;11376;50.932;4.442;2024-02-15T08:09:10;3.33;;;1.00;;
22417;SDS011;11376;50.932;4.442;2024-02-15T08:11:39;4.93;;;1.45;;
22417;SDS011;11376;50.932;4.442;2024-02-15T08:14:05;5.72;;;1.30;;
22417;SDS011;11376;50.932;4.442;2024-02-15T08:16:33;5.60;;;1.30;;
22417;SDS011;11376;50.932;4.442;2024-02-15T08:18:59;5.03;;;1.27;;
22417;SDS011;11376;50.932;4.442;2024-02-15T08:21:26;6.35;;;1.20;;
22417;SDS011;11376;50.932;4.442;2024-02-15T08:24:01;4.47;;;0.98;;
22417;SDS011;11376;50.932;4.442;2024-02-15T08:26:36;4.65;;;1.30;;
22417;SDS011;11376;50.932;4.442;2024-02-15T08:29:03;5.13;;;1.15;;
22417;SDS011;11376;50.932;4.442;2024-02-15T08:31:29;3.38;;;0.80;;
22417;SDS011;11376;50.932;4.442;2024-02-15T08:34:04;5.43;;;1.25;;
22417;SDS011;11376;50.932;4.442;2024-02-15T08:36:30;4.47;;;1.00;;
22417;SDS011;11376;50.932;4.442;2024-02-15T08:38:56;7.15;;;1.23;;
22417;SDS011;11376;50.932;4.442;2024-02-15T08:41:22;6.35;;;1.40;;
22417;SDS011;11376;50.932;4.442;2024-02-15T08:43:51;4.68;;;1.10;;
22417;SDS011;11376;50.932;4.442;2024-02-15T08:46:17;6.32;;;1.00;;
22417;SDS011;11376;50.932;4.442;2024-02-15T08:48:44;5.30;;;1.17;;
22417;SDS011;11376;50.932;4.442;2024-02-15T08:51:11;10.20;;;1.50;;
22417;SDS011;11376;50.932;4.442;2024-02-15T08:53:37;5.05;;;1.20;;
22417;SDS011;11376;50.932;4.442;2024-02-15T08:56:06;5.05;;;1.20;;
22417;SDS011;11376;50.932;4.442;2024-02-15T08:58:33;5.03;;;1.05;;
22417;SDS011;11376;50.932;4.442;2024-02-15T09:01:00;4.15;;;1.05;;
22417;SDS011;11376;50.932;4.442;2024-02-15T09:03:25;4.55;;;1.30;;
22417;SDS011;11376;50.932;4.442;2024-02-15T09:05:51;3.58;;;1.08;;
22417;SDS011;11376;50.932;4.442;2024-02-15T09:08:16;6.50;;;1.33;;
22417;SDS011;11376;50.932;4.442;2024-02-15T09:10:54;2.20;;;0.82;;
22417;SDS011;11376;50.932;4.442;2024-02-15T09:13:20;6.10;;;1.27;;
22417;SDS011;11376;50.932;4.442;2024-02-15T09:15:47;2.75;;;0.88;;
22417;SDS011;11376;50.932;4.442;2024-02-15T09:18:13;5.57;;;1.50;;
22417;SDS011;11376;50.932;4.442;2024-02-15T09:20:38;7.25;;;1.13;;
22417;SDS011;11376;50.932;4.442;2024-02-15T09:23:09;7.53;;;1.50;;
22417;SDS011;11376;50.932;4.442;2024-02-15T09:25:40;3.72;;;1.02;;
22417;SDS011;11376;50.932;4.442;2024-02-15T09:28:09;3.35;;;0.88;;
22417;SDS011;11376;50.932;4.442;2024-02-15T09:30:35;5.18;;;1.60;;
22417;SDS011;11376;50.932;4.442;2024-02-15T09:33:01;6.28;;;1.58;;
22417;SDS011;11376;50.932;4.442;2024-02-15T09:35:30;5.22;;;2.13;;
22417;SDS011;11376;50.932;4.442;2024-02-15T09:37:56;6.40;;;1.17;;
22417;SDS011;11376;50.932;4.442;2024-02-15T09:40:22;3.65;;;1.17;;
22417;SDS011;11376;50.932;4.442;2024-02-15T09:42:51;5.45;;;1.17;;
22417;SDS011;11376;50.932;4.442;2024-02-15T09:45:18;6.15;;;1.40;;
22417;SDS011;11376;50.932;4.442;2024-02-15T09:47:45;4.93;;;1.33;;
22417;SDS011;11376;50.932;4.442;2024-02-15T09:50:14;6.13;;;1.20;;
22417;SDS011;11376;50.932;4.442;2024-02-15T09:52:43;5.03;;;1.20;;
22417;SDS011;11376;50.932;4.442;2024-02-15T09:55:11;3.85;;;1.20;;
22417;SDS011;11376;50.932;4.442;2024-02-15T09:57:45;3.63;;;0.90;;
22417;SDS011;11376;50.932;4.442;2024-02-15T10:00:12;5.32;;;1.55;;
22417;SDS011;11376;50.932;4.442;2024-02-15T10:02:40;6.72;;;1.13;;
22417;SDS011;11376;50.932;4.442;2024-02-15T10:05:07;5.05;;;1.30;;
22417;SDS011;11376;50.932;4.442;2024-02-15T10:07:37;3.47;;;1.05;;
22417;SDS011;11376;50.932;4.442;2024-02-15T10:10:16;7.07;;;1.00;;
22417;SDS011;11376;50.932;4.442;2024-02-15T10:12:45;3.80;;;1.25;;
22417;SDS011;11376;50.932;4.442;2024-02-15T10:15:35;4.60;;;0.98;;
22417;SDS011;11376;50.932;4.442;2024-02-15T10:18:07;5.22;;;1.20;;
22417;SDS011;11376;50.932;4.442;2024-02-15T10:20:35;7.28;;;0.93;;
22417;SDS011;11376;50.932;4.442;2024-02-15T10:23:09;3.00;;;0.75;;
22417;SDS011;11376;50.932;4.442;2024-02-15T10:25:36;6.20;;;1.20;;
22417;SDS011;11376;50.932;4.442;2024-02-15T10:28:06;6.00;;;1.13;;
22417;SDS011;11376;50.932;4.442;2024-02-15T10:30:42;4.90;;;0.98;;
22417;SDS011;11376;50.932;4.442;2024-02-15T10:33:09;6.53;;;1.13;;
22417;SDS011;11376;50.932;4.442;2024-02-15T10:35:35;2.67;;;0.80;;
22417;SDS011;11376;50.932;4.442;2024-02-15T10:38:10;6.18;;;1.38;;
22417;SDS011;11376;50.932;4.442;2024-02-15T10:40:38;4.97;;;1.13;;
22417;SDS011;11376;50.932;4.442;2024-02-15T10:43:07;4.63;;;1.30;;
22417;SDS011;11376;50.932;4.442;2024-02-15T10:45:38;7.18;;;1.20;;
22417;SDS011;11376;50.932;4.442;2024-02-15T10:48:08;4.53;;;1.20;;
22417;SDS011;11376;50.932;4.442;2024-02-15T10:50:34;3.70;;;1.15;;
22417;SDS011;11376;50.932;4.442;2024-02-15T10:53:00;4.45;;;1.10;;
22417;SDS011;11376;50.932;4.442;2024-02-15T10:55:53;8.77;;;1.20;;
22417;SDS011;11376;50.932;4.442;2024-02-15T10:58:26;5.53;;;1.25;;
22417;SDS011;11376;50.932;4.442;2024-02-15T11:00:58;6.35;;;1.20;;
22417;SDS011;11376;50.932;4.442;2024-02-15T11:03:29;5.38;;;1.20;;
22417;SDS011;11376;50.932;4.442;2024-02-15T11:06:06;5.30;;;1.40;;
22417;SDS011;11376;50.932;4.442;2024-02-15T11:08:34;2.33;;;0.63;;
22417;SDS011;11376;50.932;4.442;2024-02-15T11:11:00;6.05;;;1.00;;
22417;SDS011;11376;50.932;4.442;2024-02-15T11:13:29;6.18;;;1.40;;
22417;SDS011;11376;50.932;4.442;2024-02-15T11:15:55;4.25;;;0.88;;
22417;SDS011;11376;50.932;4.442;2024-02-15T11:21:09;3.67;;;1.00;;
22417;SDS011;11376;50.932;4.442;2024-02-15T11:23:35;6.07;;;1.00;;
22417;SDS011;11376;50.932;4.442;2024-02-15T11:26:01;4.78;;;1.08;;
22417;SDS011;11376;50.932;4.442;2024-02-15T11:31:01;4.85;;;1.10;;
22417;SDS011;11376;50.932;4.442;2024-02-15T11:36:04;8.32;;;0.82;;
22417;SDS011;11376;50.932;4.442;2024-02-15T11:38:35;3.03;;;1.00;;
22417;SDS011;11376;50.932;4.442;2024-02-15T11:41:04;4.18;;;0.95;;
22417;SDS011;11376;50.932;4.442;2024-02-15T11:46:17;4.13;;;0.88;;
22417;SDS011;11376;50.932;4.442;2024-02-15T11:48:46;2.47;;;0.80;;
22417;SDS011;11376;50.932;4.442;2024-02-15T11:54:13;6.00;;;1.20;;
22417;SDS011;11376;50.932;4.442;2024-02-15T11:56:56;2.95;;;1.00;;
22417;SDS011;11376;50.932;4.442;2024-02-15T11:59:39;4.10;;;0.88;;
22417;SDS011;11376;50.932;4.442;2024-02-15T12:02:18;5.07;;;1.10;;
22417;SDS011;11376;50.932;4.442;2024-02-15T12:05:05;2.33;;;0.85;;
22417;SDS011;11376;50.932;4.442;2024-02-15T12:07:50;3.25;;;0.90;;
22417;SDS011;11376;50.932;4.442;2024-02-15T12:10:35;2.97;;;0.90;;
22417;SDS011;11376;50.932;4.442;2024-02-15T12:13:19;4.78;;;1.00;;
22417;SDS011;11376;50.932;4.442;2024-02-15T12:16:03;4.13;;;1.17;;
22417;SDS011;11376;50.932;4.442;2024-02-15T12:18:48;5.63;;;1.40;;
22417;SDS011;11376;50.932;4.442;2024-02-15T12:21:18;7.22;;;2.33;;
22417;SDS011;11376;50.932;4.442;2024-02-15T12:23:50;6.50;;;1.63;;
22417;SDS011;11376;50.932;4.442;2024-02-15T12:26:20;7.50;;;1.45;;
22417;SDS011;11376;50.932;4.442;2024-02-15T12:28:51;4.88;;;1.50;;
22417;SDS011;11376;50.932;4.442;2024-02-15T12:31:21;4.63;;;1.70;;
22417;SDS011;11376;50.932;4.442;2024-02-15T12:33:59;8.43;;;1.50;;
22417;SDS011;11376;50.932;4.442;2024-02-15T12:36:26;4.63;;;1.10;;
22417;SDS011;11376;50.932;4.442;2024-02-15T12:39:02;4.63;;;1.30;;
22417;SDS011;11376;50.932;4.442;2024-02-15T12:41:35;6.82;;;1.20;;
22417;SDS011;11376;50.932;4.442;2024-02-15T12:44:07;5.53;;;1.23;;
22417;SDS011;11376;50.932;4.442;2024-02-15T12:46:35;4.75;;;1.25;;
22417;SDS011;11376;50.932;4.442;2024-02-15T12:51:51;6.47;;;1.00;;
22417;SDS011;11376;50.932;4.442;2024-02-15T12:54:22;4.40;;;0.88;;
22417;SDS011;11376;50.932;4.442;2024-02-15T12:56:48;3.50;;;0.63;;
22417;SDS011;11376;50.932;4.442;2024-02-15T12:59:14;3.60;;;1.10;;
22417;SDS011;11376;50.932;4.442;2024-02-15T13:01:41;3.30;;;0.80;;
22417;SDS011;11376;50.932;4.442;2024-02-15T13:04:07;2.70;;;0.88;;
22417;SDS011;11376;50.932;4.442;2024-02-15T13:06:33;3.58;;;0.80;;
22417;SDS011;11376;50.932;4.442;2024-02-15T13:09:01;3.10;;;0.85;;
22417;SDS011;11376;50.932;4.442;2024-02-15T13:11:28;2.63;;;0.77;;
22417;SDS011;11376;50.932;4.442;2024-02-15T13:13:54;4.47;;;1.15;;
22417;SDS011;11376;50.932;4.442;2024-02-15T13:16:20;3.53;;;1.08;;
22417;SDS011;11376;50.932;4.442;2024-02-15T13:18:48;2.67;;;0.85;;
22417;SDS011;11376;50.932;4.442;2024-02-15T13:21:14;3.88;;;0.90;;
22417;SDS011;11376;50.932;4.442;2024-02-15T13:23:39;5.75;;;1.00;;
22417;SDS011;11376;50.932;4.442;2024-02-15T13:26:05;3.35;;;0.82;;
22417;SDS011;11376;50.932;4.442;2024-02-15T13:28:33;4.93;;;0.90;;
22417;SDS011;11376;50.932;4.442;2024-02-15T13:30:58;5.38;;;1.20;;
22417;SDS011;11376;50.932;4.442;2024-02-15T13:33:24;5.93;;;0.85;;
22417;SDS011;11376;50.932;4.442;2024-02-15T13:35:51;2.60;;;0.70;;
22417;SDS011;11376;50.932;4.442;2024-02-15T13:38:17;5.22;;;0.80;;
22417;SDS011;11376;50.932;4.442;2024-02-15T13:40:47;2.58;;;0.80;;
22417;SDS011;11376;50.932;4.442;2024-02-15T13:43:17;4.80;;;0.82;;
22417;SDS011;11376;50.932;4.442;2024-02-15T13:45:43;5.93;;;1.00;;
22417;SDS011;11376;50.932;4.442;2024-02-15T13:48:09;2.60;;;0.63;;
22417;SDS011;11376;50.932;4.442;2024-02-15T13:50:38;2.85;;;0.80;;
22417;SDS011;11376;50.932;4.442;2024-02-15T13:53:04;5.22;;;0.70;;
22417;SDS011;11376;50.932;4.442;2024-02-15T13:55:30;2.15;;;0.75;;
22417;SDS011;11376;50.932;4.442;2024-02-15T13:57:55;2.85;;;0.82;;
22417;SDS011;11376;50.932;4.442;2024-02-15T14:00:21;3.90;;;0.90;;
22417;SDS011;11376;50.932;4.442;2024-02-15T14:02:51;1.42;;;0.60;;
22417;SDS011;11376;50.932;4.442;2024-02-15T14:05:18;1.73;;;0.65;;
22417;SDS011;11376;50.932;4.442;2024-02-15T14:07:48;3.95;;;1.00;;
22417;SDS011;11376;50.932;4.442;2024-02-15T14:10:19;2.40;;;0.60;;
22417;SDS011;11376;50.932;4.442;2024-02-15T14:12:46;3.75;;;0.70;;
22417;SDS011;11376;50.932;4.442;2024-02-15T14:15:26;4.43;;;1.00;;
22417;SDS011;11376;50.932;4.442;2024-02-15T14:17:53;3.60;;;0.70;;
22417;SDS011;11376;50.932;4.442;2024-02-15T14:20:21;2.88;;;0.77;;
22417;SDS011;11376;50.932;4.442;2024-02-15T14:22:47;2.33;;;0.75;;
22417;SDS011;11376;50.932;4.442;2024-02-15T14:25:22;3.75;;;0.95;;
22417;SDS011;11376;50.932;4.442;2024-02-15T14:27:50;4.90;;;0.90;;
22417;SDS011;11376;50.932;4.442;2024-02-15T14:30:17;2.17;;;0.85;;
22417;SDS011;11376;50.932;4.442;2024-02-15T14:33:01;2.75;;;0.90;;
22417;SDS011;11376;50.932;4.442;2024-02-15T14:35:36;4.57;;;0.70;;
22417;SDS011;11376;50.932;4.442;2024-02-15T14:38:07;2.65;;;0.75;;
22417;SDS011;11376;50.932;4.442;2024-02-15T14:40:35;6.05;;;1.10;;
22417;SDS011;11376;50.932;4.442;2024-02-15T14:43:09;3.83;;;0.73;;
22417;SDS011;11376;50.932;4.442;2024-02-15T14:45:38;2.97;;;0.80;;
22417;SDS011;11376;50.932;4.442;2024-02-15T14:48:07;3.30;;;1.00;;
22417;SDS011;11376;50.932;4.442;2024-02-15T14:50:35;3.20;;;0.80;;
22417;SDS011;11376;50.932;4.442;2024-02-15T14:53:01;4.43;;;0.88;;
22417;SDS011;11376;50.932;4.442;2024-02-15T14:55:27;4.20;;;0.55;;
22417;SDS011;11376;50.932;4.442;2024-02-15T14:57:54;2.80;;;0.60;;
22417;SDS011;11376;50.932;4.442;2024-02-15T15:00:19;3.33;;;0.70;;
22417;SDS011;11376;50.932;4.442;2024-02-15T15:02:47;7.53;;;0.60;;
22417;SDS011;11376;50.932;4.442;2024-02-15T15:05:13;2.75;;;0.68;;
22417;SDS011;11376;50.932;4.442;2024-02-15T15:07:57;5.38;;;0.73;;